createdAt,value
2018-09-21T00:00:52.514Z,0.00
2018-09-21T00:01:52.500Z,0.00
2018-09-21T00:02:52.493Z,0.00
2018-09-21T00:03:52.484Z,0.00
2018-09-21T00:04:52.468Z,0.00
2018-09-21T00:05:52.456Z,0.00
2018-09-21T00:06:52.448Z,0.00
2018-09-21T00:07:52.443Z,0.00
2018-09-21T00:08:52.422Z,0.00
2018-09-21T00:09:52.419Z,0.00
2018-09-21T00:10:52.401Z,0.00
2018-09-21T00:11:52.396Z,0.00
2018-09-21T00:12:52.381Z,0.00
2018-09-21T00:13:52.369Z,0.00
2018-09-21T00:14:52.356Z,0.00
2018-09-21T00:15:52.348Z,0.00
2018-09-21T00:16:52.337Z,0.00
2018-09-21T00:17:52.324Z,0.00
2018-09-21T00:18:52.318Z,0.00
2018-09-21T00:19:52.305Z,0.00
2018-09-21T00:20:52.293Z,0.00
2018-09-21T00:21:52.284Z,0.00
2018-09-21T00:22:52.269Z,0.00
2018-09-21T00:23:52.260Z,0.00
2018-09-21T00:24:52.248Z,0.00
2018-09-21T00:25:52.235Z,0.00
2018-09-21T00:26:52.225Z,0.00
2018-09-21T00:27:52.214Z,0.00
2018-09-21T00:28:52.204Z,0.00
2018-09-21T00:29:52.191Z,0.00
2018-09-21T00:30:52.186Z,0.00
2018-09-21T00:31:52.173Z,0.00
2018-09-21T00:32:52.163Z,0.00
2018-09-21T00:33:52.151Z,0.00
2018-09-21T00:34:52.139Z,0.00
2018-09-21T00:35:52.129Z,0.00
2018-09-21T00:36:52.116Z,0.00
2018-09-21T00:37:52.107Z,0.00
2018-09-21T00:38:52.098Z,0.00
2018-09-21T00:39:52.084Z,0.00
2018-09-21T00:40:52.072Z,0.00
2018-09-21T00:41:52.062Z,0.00
2018-09-21T00:42:52.049Z,0.00
2018-09-21T00:43:52.038Z,0.00
2018-09-21T00:44:52.028Z,0.00
2018-09-21T00:45:52.019Z,0.00
2018-09-21T00:46:52.006Z,0.00
2018-09-21T00:47:51.999Z,0.00
2018-09-21T00:48:51.987Z,0.00
2018-09-21T00:49:51.976Z,0.00
2018-09-21T00:50:51.964Z,0.00
2018-09-21T00:51:51.952Z,0.00
2018-09-21T00:52:51.941Z,0.00
2018-09-21T00:53:51.930Z,0.00
2018-09-21T00:54:51.920Z,0.00
2018-09-21T00:55:51.914Z,0.00
2018-09-21T00:56:51.900Z,0.00
2018-09-21T00:57:51.886Z,0.00
2018-09-21T00:58:51.877Z,0.00
2018-09-21T00:59:51.862Z,0.00
2018-09-21T01:00:51.858Z,0.00
2018-09-21T01:01:51.844Z,0.00
2018-09-21T01:02:51.833Z,0.00
2018-09-21T01:03:51.821Z,0.00
2018-09-21T01:04:51.812Z,0.00
2018-09-21T01:05:51.806Z,0.00
2018-09-21T01:06:51.786Z,0.00
2018-09-21T01:07:51.778Z,0.00
2018-09-21T01:08:51.766Z,0.00
2018-09-21T01:09:51.752Z,0.00
2018-09-21T01:10:51.743Z,0.00
2018-09-21T01:11:51.731Z,0.00
2018-09-21T01:12:51.719Z,0.00
2018-09-21T01:13:51.707Z,0.00
2018-09-21T01:14:51.697Z,0.00
2018-09-21T01:15:51.685Z,0.00
2018-09-21T01:16:51.676Z,0.00
2018-09-21T01:17:51.663Z,0.00
2018-09-21T01:18:51.655Z,0.00
2018-09-21T01:19:51.642Z,0.00
2018-09-21T01:20:51.635Z,0.00
2018-09-21T01:21:51.621Z,0.00
2018-09-21T01:22:51.610Z,0.00
2018-09-21T01:23:51.597Z,0.00
2018-09-21T01:24:51.588Z,0.00
2018-09-21T01:25:51.577Z,0.00
2018-09-21T01:26:51.565Z,0.00
2018-09-21T01:27:51.553Z,0.00
2018-09-21T01:28:51.544Z,0.00
2018-09-21T01:29:51.534Z,0.00
2018-09-21T01:30:51.522Z,0.00
2018-09-21T01:31:51.514Z,0.00
2018-09-21T01:32:51.614Z,0.00
2018-09-21T01:33:51.487Z,0.00
2018-09-21T01:34:51.478Z,0.00
2018-09-21T01:35:51.465Z,0.00
2018-09-21T01:36:51.456Z,0.00
2018-09-21T01:37:51.447Z,0.00
2018-09-21T01:38:51.433Z,0.00
2018-09-21T01:39:51.424Z,0.00
2018-09-21T01:40:51.416Z,0.00
2018-09-21T01:41:51.404Z,0.00
2018-09-21T01:42:51.391Z,0.00
2018-09-21T01:43:51.379Z,0.00
2018-09-21T01:44:51.365Z,0.00
2018-09-21T01:45:51.361Z,0.00
2018-09-21T01:46:51.352Z,0.00
2018-09-21T01:47:51.334Z,0.00
2018-09-21T01:48:51.323Z,0.00
2018-09-21T01:49:51.310Z,0.00
2018-09-21T01:50:51.306Z,0.00
2018-09-21T01:51:51.290Z,0.00
2018-09-21T01:52:51.279Z,0.00
2018-09-21T01:53:51.269Z,0.00
2018-09-21T01:54:51.259Z,0.00
2018-09-21T01:55:51.246Z,0.00
2018-09-21T01:56:51.235Z,0.00
2018-09-21T01:57:51.225Z,0.00
2018-09-21T01:58:51.214Z,0.00
2018-09-21T01:59:51.201Z,0.00
2018-09-21T02:00:51.191Z,0.00
2018-09-21T02:01:51.181Z,0.00
2018-09-21T02:02:51.169Z,0.00
2018-09-21T02:03:51.156Z,0.00
2018-09-21T02:04:51.147Z,0.00
2018-09-21T02:05:51.139Z,0.00
2018-09-21T02:06:51.127Z,0.00
2018-09-21T02:07:51.115Z,0.00
2018-09-21T02:08:51.103Z,0.00
2018-09-21T02:09:51.092Z,0.00
2018-09-21T02:10:51.083Z,0.00
2018-09-21T02:11:51.072Z,0.00
2018-09-21T02:12:51.059Z,0.00
2018-09-21T02:13:51.049Z,0.00
2018-09-21T02:14:51.043Z,0.00
2018-09-21T02:15:51.025Z,0.00
2018-09-21T02:16:51.015Z,0.00
2018-09-21T02:17:51.007Z,0.00
2018-09-21T02:18:50.997Z,0.00
2018-09-21T02:19:50.983Z,0.00
2018-09-21T02:20:50.969Z,0.00
2018-09-21T02:21:50.960Z,0.00
2018-09-21T02:22:50.949Z,0.00
2018-09-21T02:23:50.939Z,0.00
2018-09-21T02:24:50.931Z,0.00
2018-09-21T02:25:50.915Z,0.00
2018-09-21T02:26:50.904Z,0.00
2018-09-21T02:27:50.895Z,0.00
2018-09-21T02:28:50.882Z,0.00
2018-09-21T02:29:50.873Z,0.00
2018-09-21T02:30:50.865Z,0.00
2018-09-21T02:31:50.856Z,0.00
2018-09-21T02:32:50.838Z,0.00
2018-09-21T02:33:50.830Z,0.00
2018-09-21T02:34:50.818Z,0.00
2018-09-21T02:35:50.806Z,0.00
2018-09-21T02:36:50.800Z,0.00
2018-09-21T02:37:50.784Z,0.00
2018-09-21T02:38:50.776Z,0.00
2018-09-21T02:39:50.759Z,0.00
2018-09-21T02:40:50.751Z,0.00
2018-09-21T02:41:50.740Z,0.00
2018-09-21T02:42:50.728Z,0.00
2018-09-21T02:43:50.717Z,0.00
2018-09-21T02:44:50.710Z,0.00
2018-09-21T02:45:50.698Z,0.00
2018-09-21T02:46:50.684Z,0.00
2018-09-21T02:47:50.674Z,0.00
2018-09-21T02:48:50.785Z,0.00
2018-09-21T02:49:50.651Z,0.00
2018-09-21T02:50:50.642Z,0.00
2018-09-21T02:51:50.628Z,0.00
2018-09-21T02:52:50.623Z,0.00
2018-09-21T02:53:50.608Z,0.00
2018-09-21T02:54:50.601Z,0.00
2018-09-21T02:55:50.584Z,0.00
2018-09-21T02:56:50.573Z,0.00
2018-09-21T02:57:50.562Z,0.00
2018-09-21T02:58:50.556Z,0.00
2018-09-21T02:59:50.540Z,0.00
2018-09-21T03:00:50.772Z,0.00
2018-09-21T03:01:50.521Z,0.00
2018-09-21T03:02:50.518Z,0.00
2018-09-21T03:03:50.499Z,0.00
2018-09-21T03:04:50.491Z,0.00
2018-09-21T03:05:50.475Z,0.00
2018-09-21T03:06:50.467Z,0.00
2018-09-21T03:07:50.456Z,0.00
2018-09-21T03:08:50.440Z,0.00
2018-09-21T03:09:50.432Z,0.00
2018-09-21T03:10:50.419Z,0.00
2018-09-21T03:11:50.408Z,0.00
2018-09-21T03:12:50.400Z,0.00
2018-09-21T03:13:50.388Z,0.00
2018-09-21T03:14:50.376Z,0.00
2018-09-21T03:15:50.364Z,0.00
2018-09-21T03:16:50.355Z,0.00
2018-09-21T03:17:50.343Z,0.00
2018-09-21T03:18:50.333Z,0.00
2018-09-21T03:19:50.319Z,0.00
2018-09-21T03:20:50.313Z,0.00
2018-09-21T03:21:50.298Z,0.00
2018-09-21T03:22:50.288Z,0.00
2018-09-21T03:23:50.278Z,0.00
2018-09-21T03:24:50.265Z,0.00
2018-09-21T03:25:50.257Z,0.00
2018-09-21T03:26:50.241Z,0.00
2018-09-21T03:27:50.231Z,0.00
2018-09-21T03:28:50.222Z,0.00
2018-09-21T03:29:50.209Z,0.00
2018-09-21T03:30:50.199Z,0.00
2018-09-21T03:31:50.188Z,0.00
2018-09-21T03:32:50.181Z,0.00
2018-09-21T03:33:50.171Z,0.00
2018-09-21T03:34:50.202Z,0.00
2018-09-21T03:35:50.146Z,0.00
2018-09-21T03:36:50.134Z,0.00
2018-09-21T03:37:50.124Z,0.00
2018-09-21T03:38:50.112Z,0.00
2018-09-21T03:39:50.101Z,0.00
2018-09-21T03:40:50.096Z,0.00
2018-09-21T03:41:50.093Z,0.00
2018-09-21T03:42:50.068Z,0.00
2018-09-21T03:43:50.057Z,0.00
2018-09-21T03:44:50.044Z,0.00
2018-09-21T03:45:50.040Z,0.00
2018-09-21T03:46:50.024Z,0.00
2018-09-21T03:47:50.011Z,0.00
2018-09-21T03:48:50.002Z,0.00
2018-09-21T03:49:49.989Z,0.00
2018-09-21T03:50:49.980Z,0.00
2018-09-21T03:51:49.973Z,0.00
2018-09-21T03:52:49.961Z,0.00
2018-09-21T03:53:49.947Z,0.00
2018-09-21T03:54:49.936Z,0.00
2018-09-21T03:55:49.927Z,0.00
2018-09-21T03:56:49.918Z,0.00
2018-09-21T03:57:49.902Z,0.00
2018-09-21T03:58:49.891Z,0.00
2018-09-21T03:59:49.879Z,0.00
2018-09-21T04:00:49.871Z,0.00
2018-09-21T04:01:49.857Z,0.00
2018-09-21T04:02:49.847Z,0.00
2018-09-21T04:03:49.837Z,0.00
2018-09-21T04:04:49.825Z,0.00
2018-09-21T04:05:49.813Z,0.00
2018-09-21T04:06:49.803Z,0.00
2018-09-21T04:07:49.790Z,0.00
2018-09-21T04:08:49.785Z,0.00
2018-09-21T04:09:49.772Z,0.00
2018-09-21T04:10:49.759Z,0.00
2018-09-21T04:11:49.748Z,0.00
2018-09-21T04:12:49.736Z,0.00
2018-09-21T04:13:49.727Z,0.00
2018-09-21T04:14:49.715Z,0.00
2018-09-21T04:15:49.703Z,0.00
2018-09-21T04:16:49.692Z,0.00
2018-09-21T04:17:49.683Z,0.00
2018-09-21T04:18:49.668Z,0.00
2018-09-21T04:19:49.659Z,0.00
2018-09-21T04:20:49.648Z,0.00
2018-09-21T04:21:49.641Z,0.00
2018-09-21T04:22:49.627Z,0.00
2018-09-21T04:23:49.614Z,0.00
2018-09-21T04:24:49.606Z,0.00
2018-09-21T04:25:49.594Z,0.00
2018-09-21T04:26:49.585Z,0.00
2018-09-21T04:27:49.569Z,0.00
2018-09-21T04:28:49.563Z,0.00
2018-09-21T04:29:49.561Z,0.00
2018-09-21T04:30:49.540Z,0.00
2018-09-21T04:31:49.534Z,0.00
2018-09-21T04:32:49.516Z,0.00
2018-09-21T04:33:49.506Z,0.00
2018-09-21T04:34:49.493Z,0.00
2018-09-21T04:35:49.488Z,0.00
2018-09-21T04:36:49.474Z,0.00
2018-09-21T04:37:49.460Z,0.00
2018-09-21T04:38:49.453Z,0.00
2018-09-21T04:39:49.441Z,0.00
2018-09-21T04:40:49.427Z,0.00
2018-09-21T04:41:49.417Z,0.00
2018-09-21T04:42:49.407Z,0.00
2018-09-21T04:43:49.395Z,0.00
2018-09-21T04:44:49.384Z,4.00
2018-09-21T04:45:49.394Z,4.00
2018-09-21T04:46:49.362Z,4.00
2018-09-21T04:47:49.349Z,0.00
2018-09-21T04:48:49.340Z,4.00
2018-09-21T04:49:49.328Z,4.00
2018-09-21T04:50:49.320Z,4.00
2018-09-21T04:51:49.306Z,4.00
2018-09-21T04:52:49.296Z,4.00
2018-09-21T04:53:49.287Z,8.00
2018-09-21T04:54:49.274Z,8.00
2018-09-21T04:55:49.264Z,8.00
2018-09-21T04:56:49.252Z,12.00
2018-09-21T04:57:49.241Z,12.00
2018-09-21T04:58:49.235Z,12.00
2018-09-21T04:59:49.222Z,16.00
2018-09-21T05:00:49.213Z,16.00
2018-09-21T05:01:49.198Z,16.00
2018-09-21T05:02:49.185Z,20.00
2018-09-21T05:03:49.174Z,24.00
2018-09-21T05:04:49.165Z,24.00
2018-09-21T05:05:49.153Z,32.00
2018-09-21T05:06:49.143Z,32.00
2018-09-21T05:07:49.133Z,36.00
2018-09-21T05:08:49.124Z,40.00
2018-09-21T05:09:49.112Z,44.00
2018-09-21T05:10:49.104Z,48.00
2018-09-21T05:11:49.091Z,52.00
2018-09-21T05:12:49.077Z,60.00
2018-09-21T05:13:49.143Z,68.00
2018-09-21T05:14:49.057Z,80.00
2018-09-21T05:15:49.047Z,88.00
2018-09-21T05:16:49.034Z,100.00
2018-09-21T05:17:49.026Z,112.00
2018-09-21T05:18:49.013Z,124.00
2018-09-21T05:19:49.027Z,136.00
2018-09-21T05:20:48.991Z,148.00
2018-09-21T05:21:48.979Z,164.00
2018-09-21T05:22:48.971Z,184.00
2018-09-21T05:23:48.963Z,212.00
2018-09-21T05:24:48.947Z,248.00
2018-09-21T05:25:48.939Z,284.00
2018-09-21T05:26:48.925Z,316.00
2018-09-21T05:27:48.919Z,368.00
2018-09-21T05:28:48.906Z,408.00
2018-09-21T05:29:48.897Z,444.00
2018-09-21T05:30:48.883Z,476.00
2018-09-21T05:31:48.878Z,520.00
2018-09-21T05:32:48.864Z,544.00
2018-09-21T05:33:48.855Z,560.00
2018-09-21T05:34:48.990Z,600.00
2018-09-21T05:35:48.832Z,640.00
2018-09-21T05:36:48.817Z,696.00
2018-09-21T05:37:48.811Z,740.00
2018-09-21T05:38:48.796Z,776.00
2018-09-21T05:39:48.783Z,840.00
2018-09-21T05:40:48.774Z,928.00
2018-09-21T05:41:48.762Z,968.00
2018-09-21T05:42:48.751Z,968.00
2018-09-21T05:43:48.743Z,1000.00
2018-09-21T05:44:48.731Z,1052.00
2018-09-21T05:45:48.727Z,1108.00
2018-09-21T05:46:48.708Z,1132.00
2018-09-21T05:47:48.699Z,1108.00
2018-09-21T05:48:48.693Z,1008.00
2018-09-21T05:49:48.676Z,932.00
2018-09-21T05:50:48.666Z,816.00
2018-09-21T05:51:48.654Z,720.00
2018-09-21T05:52:48.649Z,620.00
2018-09-21T05:53:48.643Z,572.00
2018-09-21T05:54:48.623Z,532.00
2018-09-21T05:55:48.614Z,508.00
2018-09-21T05:56:48.602Z,488.00
2018-09-21T05:57:48.591Z,476.00
2018-09-21T05:58:48.579Z,464.00
2018-09-21T05:59:48.567Z,460.00
2018-09-21T06:00:48.557Z,468.00
2018-09-21T06:01:48.549Z,488.00
2018-09-21T06:02:48.580Z,520.00
2018-09-21T06:03:48.526Z,572.00
2018-09-21T06:04:48.517Z,644.00
2018-09-21T06:05:48.503Z,728.00
2018-09-21T06:06:48.499Z,812.00
2018-09-21T06:07:48.504Z,892.00
2018-09-21T06:08:48.473Z,948.00
2018-09-21T06:09:48.459Z,976.00
2018-09-21T06:10:48.454Z,996.00
2018-09-21T06:11:48.445Z,1020.00
2018-09-21T06:12:48.428Z,1024.00
2018-09-21T06:13:48.491Z,1028.00
2018-09-21T06:14:48.404Z,1020.00
2018-09-21T06:15:48.400Z,992.00
2018-09-21T06:16:48.383Z,940.00
2018-09-21T06:17:48.379Z,892.00
2018-09-21T06:18:48.362Z,844.00
2018-09-21T06:19:48.401Z,796.00
2018-09-21T06:20:48.343Z,748.00
2018-09-21T06:21:48.331Z,712.00
2018-09-21T06:22:48.327Z,692.00
2018-09-21T06:23:48.316Z,676.00
2018-09-21T06:24:48.299Z,684.00
2018-09-21T06:25:48.291Z,716.00
2018-09-21T06:26:48.276Z,772.00
2018-09-21T06:27:48.265Z,836.00
2018-09-21T06:28:48.255Z,900.00
2018-09-21T06:29:48.245Z,952.00
2018-09-21T06:30:48.234Z,996.00
2018-09-21T06:31:48.231Z,1020.00
2018-09-21T06:32:48.211Z,1020.00
2018-09-21T06:33:48.302Z,1020.00
2018-09-21T06:34:48.189Z,1040.00
2018-09-21T06:35:48.183Z,1100.00
2018-09-21T06:36:48.167Z,1196.00
2018-09-21T06:37:48.156Z,1320.00
2018-09-21T06:38:48.144Z,1448.00
2018-09-21T06:39:48.136Z,1580.00
2018-09-21T06:40:48.128Z,1696.00
2018-09-21T06:41:48.111Z,1756.00
2018-09-21T06:42:48.102Z,1772.00
2018-09-21T06:43:48.094Z,1760.00
2018-09-21T06:44:48.081Z,1740.00
2018-09-21T06:45:48.068Z,1708.00
2018-09-21T06:46:48.057Z,1680.00
2018-09-21T06:47:48.049Z,1644.00
2018-09-21T06:48:48.038Z,1612.00
2018-09-21T06:49:48.032Z,1556.00
2018-09-21T06:50:48.014Z,1492.00
2018-09-21T06:51:48.008Z,1420.00
2018-09-21T06:52:47.992Z,1372.00
2018-09-21T06:53:47.982Z,1360.00
2018-09-21T06:54:47.972Z,1384.00
2018-09-21T06:55:47.962Z,1440.00
2018-09-21T06:56:47.950Z,1524.00
2018-09-21T06:57:47.940Z,1592.00
2018-09-21T06:58:47.930Z,1612.00
2018-09-21T06:59:47.919Z,1592.00
2018-09-21T07:00:47.909Z,1528.00
2018-09-21T07:01:47.971Z,1456.00
2018-09-21T07:02:47.885Z,1388.00
2018-09-21T07:03:47.876Z,1352.00
2018-09-21T07:04:47.868Z,1368.00
2018-09-21T07:05:47.853Z,1412.00
2018-09-21T07:06:47.844Z,1432.00
2018-09-21T07:07:47.829Z,1420.00
2018-09-21T07:08:47.820Z,1380.00
2018-09-21T07:09:47.818Z,1316.00
2018-09-21T07:10:47.803Z,1240.00
2018-09-21T07:11:47.787Z,1176.00
2018-09-21T07:12:47.780Z,1132.00
2018-09-21T07:13:47.766Z,1128.00
2018-09-21T07:14:47.754Z,1156.00
2018-09-21T07:15:47.779Z,1208.00
2018-09-21T07:16:47.734Z,1284.00
2018-09-21T07:17:47.726Z,1388.00
2018-09-21T07:18:47.714Z,1524.00
2018-09-21T07:19:47.700Z,1688.00
2018-09-21T07:20:47.695Z,1856.00
2018-09-21T07:21:47.679Z,1948.00
2018-09-21T07:22:47.670Z,1992.00
2018-09-21T07:23:47.656Z,2020.00
2018-09-21T07:24:47.649Z,2040.00
2018-09-21T07:25:47.639Z,2060.00
2018-09-21T07:26:47.625Z,2048.00
2018-09-21T07:27:47.614Z,2000.00
2018-09-21T07:28:47.607Z,1920.00
2018-09-21T07:29:47.595Z,1844.00
2018-09-21T07:30:47.587Z,1776.00
2018-09-21T07:31:47.576Z,1748.00
2018-09-21T07:32:47.559Z,1740.00
2018-09-21T07:33:47.553Z,1740.00
2018-09-21T07:34:47.540Z,1768.00
2018-09-21T07:35:47.533Z,1788.00
2018-09-21T07:36:47.519Z,1784.00
2018-09-21T07:37:47.510Z,1788.00
2018-09-21T07:38:47.498Z,1796.00
2018-09-21T07:39:47.483Z,1796.00
2018-09-21T07:40:47.473Z,1804.00
2018-09-21T07:41:47.466Z,1804.00
2018-09-21T07:42:47.499Z,1772.00
2018-09-21T07:43:47.442Z,1728.00
2018-09-21T07:44:47.436Z,1692.00
2018-09-21T07:45:47.421Z,1676.00
2018-09-21T07:46:47.410Z,1668.00
2018-09-21T07:47:47.399Z,1636.00
2018-09-21T07:48:47.455Z,1600.00
2018-09-21T07:49:47.378Z,1608.00
2018-09-21T07:50:47.371Z,1724.00
2018-09-21T07:51:47.357Z,2008.00
2018-09-21T07:52:47.345Z,2284.00
2018-09-21T07:53:47.335Z,2504.00
2018-09-21T07:54:47.325Z,2600.00
2018-09-21T07:55:47.311Z,2696.00
2018-09-21T07:56:47.301Z,2780.00
2018-09-21T07:57:47.290Z,2856.00
2018-09-21T07:58:47.282Z,2888.00
2018-09-21T07:59:47.273Z,2940.00
2018-09-21T08:00:47.260Z,3048.00
2018-09-21T08:01:47.247Z,3164.00
2018-09-21T08:02:47.237Z,3244.00
2018-09-21T08:03:47.226Z,3108.00
2018-09-21T08:04:47.217Z,2856.00
2018-09-21T08:05:47.203Z,2580.00
2018-09-21T08:06:47.193Z,2384.00
2018-09-21T08:07:47.187Z,2272.00
2018-09-21T08:08:47.173Z,2232.00
2018-09-21T08:09:47.160Z,2248.00
2018-09-21T08:10:47.149Z,2272.00
2018-09-21T08:11:47.139Z,2212.00
2018-09-21T08:12:47.134Z,2100.00
2018-09-21T08:13:47.117Z,2088.00
2018-09-21T08:14:47.105Z,2240.00
2018-09-21T08:15:47.095Z,2428.00
2018-09-21T08:16:47.086Z,2552.00
2018-09-21T08:17:47.075Z,2508.00
2018-09-21T08:18:47.064Z,2420.00
2018-09-21T08:19:47.055Z,2356.00
2018-09-21T08:20:47.042Z,2312.00
2018-09-21T08:21:47.029Z,2268.00
2018-09-21T08:22:47.019Z,2200.00
2018-09-21T08:23:47.011Z,2072.00
2018-09-21T08:24:47.000Z,1920.00
2018-09-21T08:25:46.990Z,1792.00
2018-09-21T08:26:46.977Z,1736.00
2018-09-21T08:27:46.967Z,1728.00
2018-09-21T08:28:46.959Z,1748.00
2018-09-21T08:29:46.946Z,1792.00
2018-09-21T08:30:46.934Z,1864.00
2018-09-21T08:31:46.923Z,1960.00
2018-09-21T08:32:46.912Z,2064.00
2018-09-21T08:33:46.902Z,2152.00
2018-09-21T08:34:46.890Z,2180.00
2018-09-21T08:35:46.883Z,2164.00
2018-09-21T08:36:46.870Z,2116.00
2018-09-21T08:37:46.857Z,2132.00
2018-09-21T08:38:46.847Z,2204.00
2018-09-21T08:39:46.840Z,2376.00
2018-09-21T08:40:46.826Z,2672.00
2018-09-21T08:41:46.815Z,2972.00
2018-09-21T08:42:46.807Z,3092.00
2018-09-21T08:43:46.797Z,3200.00
2018-09-21T08:44:46.783Z,3344.00
2018-09-21T08:45:46.776Z,3568.00
2018-09-21T08:46:46.761Z,3932.00
2018-09-21T08:47:46.752Z,4216.00
2018-09-21T08:48:46.740Z,4320.00
2018-09-21T08:49:46.731Z,4664.00
2018-09-21T08:50:46.721Z,4484.00
2018-09-21T08:51:46.708Z,4236.00
2018-09-21T08:52:46.697Z,4296.00
2018-09-21T08:53:46.688Z,4268.00
2018-09-21T08:54:46.725Z,4116.00
2018-09-21T08:55:46.665Z,3436.00
2018-09-21T08:56:46.653Z,2820.00
2018-09-21T08:57:46.643Z,2476.00
2018-09-21T08:58:46.633Z,2104.00
2018-09-21T08:59:46.620Z,1996.00
2018-09-21T09:00:46.610Z,1940.00
2018-09-21T09:01:46.598Z,1976.00
2018-09-21T09:02:46.681Z,2292.00
2018-09-21T09:03:46.577Z,2444.00
2018-09-21T09:04:46.571Z,2188.00
2018-09-21T09:05:46.556Z,1872.00
2018-09-21T09:06:46.547Z,1660.00
2018-09-21T09:07:46.535Z,1632.00
2018-09-21T09:08:46.524Z,1616.00
2018-09-21T09:09:46.513Z,1836.00
2018-09-21T09:10:46.514Z,2068.00
2018-09-21T09:11:46.500Z,2208.00
2018-09-21T09:12:46.479Z,2328.00
2018-09-21T09:13:46.470Z,2288.00
2018-09-21T09:14:46.461Z,2604.00
2018-09-21T09:15:46.452Z,2764.00
2018-09-21T09:16:46.436Z,2556.00
2018-09-21T09:17:46.426Z,2504.00
2018-09-21T09:18:46.416Z,2420.00
2018-09-21T09:19:46.407Z,1964.00
2018-09-21T09:20:46.398Z,1920.00
2018-09-21T09:21:46.383Z,1936.00
2018-09-21T09:22:46.373Z,2044.00
2018-09-21T09:23:46.363Z,2092.00
2018-09-21T09:24:46.355Z,2280.00
2018-09-21T09:25:46.339Z,2452.00
2018-09-21T09:26:46.330Z,2408.00
2018-09-21T09:27:46.318Z,2268.00
2018-09-21T09:28:46.307Z,2416.00
2018-09-21T09:29:46.301Z,2708.00
2018-09-21T09:30:46.285Z,2980.00
2018-09-21T09:31:46.277Z,2952.00
2018-09-21T09:32:46.268Z,2560.00
2018-09-21T09:33:46.252Z,2248.00
2018-09-21T09:34:46.243Z,2056.00
2018-09-21T09:35:46.232Z,2416.00
2018-09-21T09:36:46.229Z,2868.00
2018-09-21T09:37:46.209Z,3104.00
2018-09-21T09:38:46.199Z,3240.00
2018-09-21T09:39:46.191Z,3248.00
2018-09-21T09:40:46.182Z,3296.00
2018-09-21T09:41:46.166Z,3168.00
2018-09-21T09:42:46.254Z,3460.00
2018-09-21T09:43:46.146Z,3212.00
2018-09-21T09:44:46.135Z,3048.00
2018-09-21T09:45:46.125Z,2756.00
2018-09-21T09:46:46.113Z,1968.00
2018-09-21T09:47:46.104Z,2156.00
2018-09-21T09:48:46.206Z,2816.00
2018-09-21T09:49:46.081Z,2620.00
2018-09-21T09:50:46.070Z,2996.00
2018-09-21T09:51:46.061Z,2608.00
2018-09-21T09:52:46.049Z,2008.00
2018-09-21T09:53:46.041Z,3716.00
2018-09-21T09:54:46.067Z,5872.00
2018-09-21T09:55:46.017Z,5156.00
2018-09-21T09:56:46.007Z,3664.00
2018-09-21T09:57:45.995Z,2684.00
2018-09-21T09:58:45.983Z,3136.00
2018-09-21T09:59:45.973Z,3948.00
2018-09-21T10:00:45.963Z,4408.00
2018-09-21T10:01:45.955Z,3128.00
2018-09-21T10:02:45.941Z,2484.00
2018-09-21T10:03:46.054Z,2072.00
2018-09-21T10:04:45.919Z,2992.00
2018-09-21T10:05:45.906Z,2744.00
2018-09-21T10:06:45.905Z,2568.00
2018-09-21T10:07:45.885Z,2976.00
2018-09-21T10:08:45.875Z,2144.00
2018-09-21T10:09:45.868Z,1384.00
2018-09-21T10:10:45.853Z,1380.00
2018-09-21T10:11:45.845Z,1100.00
2018-09-21T10:12:45.832Z,1004.00
2018-09-21T10:13:45.819Z,1064.00
2018-09-21T10:14:45.810Z,984.00
2018-09-21T10:15:45.798Z,1044.00
2018-09-21T10:16:45.791Z,896.00
2018-09-21T10:17:45.778Z,800.00
2018-09-21T10:18:45.768Z,724.00
2018-09-21T10:19:45.760Z,824.00
2018-09-21T10:20:45.840Z,864.00
2018-09-21T10:21:45.739Z,780.00
2018-09-21T10:22:45.721Z,812.00
2018-09-21T10:23:45.712Z,1104.00
2018-09-21T10:24:45.703Z,1508.00
2018-09-21T10:25:45.690Z,1784.00
2018-09-21T10:26:45.755Z,1904.00
2018-09-21T10:27:45.893Z,1832.00
2018-09-21T10:28:45.905Z,1644.00
2018-09-21T10:29:45.646Z,1692.00
2018-09-21T10:30:45.633Z,1820.00
2018-09-21T10:31:45.625Z,1780.00
2018-09-21T10:32:45.614Z,1804.00
2018-09-21T10:33:45.743Z,2144.00
2018-09-21T10:34:45.589Z,2236.00
2018-09-21T10:35:45.583Z,2288.00
2018-09-21T10:36:45.568Z,2044.00
2018-09-21T10:37:45.557Z,1704.00
2018-09-21T10:38:45.546Z,1916.00
2018-09-21T10:39:45.538Z,2088.00
2018-09-21T10:40:45.555Z,2080.00
2018-09-21T10:41:45.514Z,2036.00
2018-09-21T10:42:45.655Z,2132.00
2018-09-21T10:43:45.491Z,2228.00
2018-09-21T10:44:45.486Z,2248.00
2018-09-21T10:45:45.470Z,2356.00
2018-09-21T10:46:45.459Z,2452.00
2018-09-21T10:47:45.451Z,2412.00
2018-09-21T10:48:45.436Z,2316.00
2018-09-21T10:49:45.422Z,2440.00
2018-09-21T10:50:45.415Z,2296.00
2018-09-21T10:51:45.400Z,2204.00
2018-09-21T10:52:45.449Z,2172.00
2018-09-21T10:53:45.385Z,2136.00
2018-09-21T10:54:45.367Z,2256.00
2018-09-21T10:55:45.358Z,2532.00
2018-09-21T10:56:45.348Z,2616.00
2018-09-21T10:57:45.337Z,2676.00
2018-09-21T10:58:45.454Z,2764.00
2018-09-21T10:59:45.313Z,2736.00
2018-09-21T11:00:45.305Z,2548.00
2018-09-21T11:01:45.293Z,2496.00
2018-09-21T11:02:45.279Z,2380.00
2018-09-21T11:03:45.269Z,2304.00
2018-09-21T11:04:45.260Z,2480.00
2018-09-21T11:05:45.248Z,2640.00
2018-09-21T11:06:45.239Z,2608.00
2018-09-21T11:07:45.226Z,2444.00
2018-09-21T11:08:45.215Z,2464.00
2018-09-21T11:09:45.202Z,2652.00
2018-09-21T11:10:45.195Z,2836.00
2018-09-21T11:11:45.181Z,2680.00
2018-09-21T11:12:45.173Z,2476.00
2018-09-21T11:13:45.160Z,2484.00
2018-09-21T11:14:45.149Z,2616.00
2018-09-21T11:15:45.138Z,3044.00
2018-09-21T11:16:45.127Z,3268.00
2018-09-21T11:17:45.120Z,3464.00
2018-09-21T11:18:45.106Z,3728.00
2018-09-21T11:19:45.094Z,4140.00
2018-09-21T11:20:45.084Z,4204.00
2018-09-21T11:21:45.071Z,4220.00
2018-09-21T11:22:45.061Z,4412.00
2018-09-21T11:23:45.051Z,4480.00
2018-09-21T11:24:45.042Z,4360.00
2018-09-21T11:25:45.027Z,4220.00
2018-09-21T11:26:45.021Z,4040.00
2018-09-21T11:27:45.006Z,4288.00
2018-09-21T11:28:44.995Z,3948.00
2018-09-21T11:29:44.986Z,3564.00
2018-09-21T11:30:44.971Z,3344.00
2018-09-21T11:31:44.961Z,2936.00
2018-09-21T11:32:44.954Z,2776.00
2018-09-21T11:33:44.940Z,2948.00
2018-09-21T11:34:44.928Z,2940.00
2018-09-21T11:35:44.918Z,2844.00
2018-09-21T11:36:44.909Z,3020.00
2018-09-21T11:37:44.894Z,3596.00
2018-09-21T11:38:44.887Z,3896.00
2018-09-21T11:39:44.875Z,3724.00
2018-09-21T11:40:44.863Z,3608.00
2018-09-21T11:41:44.852Z,4108.00
2018-09-21T11:42:44.841Z,4692.00
2018-09-21T11:43:44.829Z,4820.00
2018-09-21T11:44:44.820Z,4396.00
2018-09-21T11:45:44.810Z,3864.00
2018-09-21T11:46:44.856Z,3456.00
2018-09-21T11:47:44.831Z,2996.00
2018-09-21T11:48:44.776Z,2788.00
2018-09-21T11:49:44.763Z,2700.00
2018-09-21T11:50:44.752Z,2556.00
2018-09-21T11:51:44.745Z,2620.00
2018-09-21T11:52:44.731Z,2512.00
2018-09-21T11:53:44.721Z,2248.00
2018-09-21T11:54:44.710Z,1988.00
2018-09-21T11:55:44.700Z,1824.00
2018-09-21T11:56:44.685Z,1708.00
2018-09-21T11:57:44.675Z,1716.00
2018-09-21T11:58:44.663Z,1800.00
2018-09-21T11:59:44.655Z,1920.00
2018-09-21T12:00:44.643Z,2120.00
2018-09-21T12:01:44.668Z,2344.00
2018-09-21T12:02:44.621Z,2548.00
2018-09-21T12:03:44.612Z,2824.00
2018-09-21T12:04:44.599Z,3188.00
2018-09-21T12:05:44.591Z,3432.00
2018-09-21T12:06:44.575Z,3696.00
2018-09-21T12:07:44.572Z,4016.00
2018-09-21T12:08:44.556Z,4448.00
2018-09-21T12:09:44.545Z,4848.00
2018-09-21T12:10:44.533Z,4920.00
2018-09-21T12:11:44.525Z,4632.00
2018-09-21T12:12:44.510Z,4348.00
2018-09-21T12:13:44.499Z,4436.00
2018-09-21T12:14:44.489Z,4324.00
2018-09-21T12:15:44.482Z,4156.00
2018-09-21T12:16:44.467Z,4596.00
2018-09-21T12:17:44.456Z,5068.00
2018-09-21T12:18:44.445Z,5548.00
2018-09-21T12:19:44.437Z,5948.00
2018-09-21T12:20:44.424Z,6472.00
2018-09-21T12:21:44.411Z,6644.00
2018-09-21T12:22:44.429Z,6848.00
2018-09-21T12:23:44.394Z,6996.00
2018-09-21T12:24:44.379Z,6960.00
2018-09-21T12:25:44.369Z,7016.00
2018-09-21T12:26:44.357Z,7096.00
2018-09-21T12:27:44.346Z,7156.00
2018-09-21T12:28:44.337Z,7312.00
2018-09-21T12:29:44.324Z,7392.00
2018-09-21T12:30:44.317Z,7416.00
2018-09-21T12:31:44.307Z,7416.00
2018-09-21T12:32:44.294Z,7448.00
2018-09-21T12:33:44.284Z,7628.00
2018-09-21T12:34:44.274Z,7568.00
2018-09-21T12:35:44.259Z,7160.00
2018-09-21T12:36:44.246Z,6968.00